Time;durP1;ratioP1;P1;durP2;ratioP2;P2;SDS_P1;SDS_P2;PMS_P1;PMS_P2;Temp;Humidity;BMP_temperature;BMP_pressure;BME280_temperature;BME280_humidity;BME280_pressure;Samples;Min_cycle;Max_cycle;Signal;HPM_P1;HPM_P2
2021/07/08 00:03:06;;;;;;;7.40;5.53;;;17.10;99.90;;;17.66;100.00;101024.69;3581182;22;104710;-83
2021/07/08 00:06:18;;;;;;;6.63;5.10;;;17.10;99.90;;;17.37;100.00;101023.59;3536098;39;102494;-85
2021/07/08 00:09:32;;;;;;;5.80;5.22;;;17.00;99.90;;;17.35;100.00;101022.94;3548716;39;100160;-86
2021/07/08 00:12:44;;;;;;;7.45;5.22;;;16.90;99.90;;;17.48;100.00;101025.84;3543056;39;102033;-82
2021/07/08 00:15:56;;;;;;;8.18;5.50;;;16.90;99.90;;;17.46;100.00;101018.94;3531310;39;101083;-83
2021/07/08 00:19:09;;;;;;;6.38;4.95;;;16.80;99.90;;;17.32;100.00;101017.91;3522168;39;102226;-82
2021/07/08 00:22:22;;;;;;;6.13;5.15;;;16.80;99.90;;;17.28;100.00;101026.59;3537566;39;100565;-82
2021/07/08 00:25:38;;;;;;;8.98;5.53;;;16.80;99.90;;;17.43;100.00;101019.34;3538317;39;101109;-82
2021/07/08 00:28:50;;;;;;;5.85;5.15;;;16.70;99.90;;;17.19;100.00;101012.28;3535761;39;101252;-82
2021/07/08 00:32:02;;;;;;;5.65;4.95;;;16.70;99.90;;;17.16;100.00;101009.97;3528113;39;100861;-83
2021/07/08 00:35:16;;;;;;;7.47;5.40;;;16.70;99.90;;;17.19;100.00;101021.22;3531657;39;100053;-82
2021/07/08 00:38:28;;;;;;;6.57;5.28;;;16.60;99.90;;;17.23;100.00;101021.72;3538499;39;102296;-86
2021/07/08 00:41:40;;;;;;;5.53;5.00;;;16.60;99.90;;;17.25;100.00;101027.78;3536890;39;101370;-82
2021/07/08 00:44:52;;;;;;;10.18;6.95;;;16.80;99.90;;;17.31;100.00;101026.22;3534649;39;102431;-85
2021/07/08 00:48:04;;;;;;;6.55;5.70;;;16.60;99.90;;;17.32;100.00;101033.28;3589934;22;100225;-82
2021/07/08 00:51:17;;;;;;;7.22;5.45;;;16.50;99.90;;;17.18;100.00;101016.84;3531433;39;102748;-85
2021/07/08 00:54:30;;;;;;;7.15;5.72;;;16.50;99.90;;;17.15;100.00;101005.56;3520728;39;103051;-84
2021/07/08 00:57:41;;;;;;;7.63;5.38;;;16.40;99.90;;;17.15;100.00;101008.28;3530757;39;100613;-82
2021/07/08 01:00:55;;;;;;;7.28;5.47;;;16.40;99.90;;;17.16;100.00;101013.50;3537141;39;100031;-82
2021/07/08 01:04:08;;;;;;;6.82;5.03;;;16.40;99.90;;;17.02;100.00;101016.16;3536579;39;103035;-86
2021/07/08 01:07:22;;;;;;;6.75;5.80;;;16.40;99.90;;;17.14;100.00;101020.13;3538034;39;103361;-85
2021/07/08 01:10:35;;;;;;;5.78;5.18;;;16.40;99.90;;;17.13;100.00;101021.13;3536751;39;102010;-86
2021/07/08 01:13:47;;;;;;;6.57;5.22;;;16.30;99.90;;;17.07;100.00;101024.56;3539066;39;100647;-83
2021/07/08 01:16:59;;;;;;;7.15;5.55;;;16.30;99.90;;;16.94;100.00;101014.38;3521023;39;102381;-83
2021/07/08 01:20:10;;;;;;;8.45;6.20;;;16.30;99.90;;;16.95;100.00;101023.31;3542653;39;101079;-82
2021/07/08 01:23:25;;;;;;;6.32;5.40;;;16.30;99.90;;;16.93;100.00;101028.94;3534954;39;102872;-83
2021/07/08 01:26:37;;;;;;;6.68;5.80;;;16.20;99.90;;;16.72;100.00;101028.72;3550374;39;100603;-86
2021/07/08 01:29:50;;;;;;;6.15;5.20;;;16.20;99.90;;;16.67;100.00;101033.84;3539703;39;100815;-82
2021/07/08 01:33:01;;;;;;;8.02;5.97;;;16.30;99.90;;;16.68;100.00;101039.09;3532219;39;101508;-86
2021/07/08 01:36:13;;;;;;;7.40;5.35;;;17.20;99.90;;;16.63;100.00;101033.38;3544475;39;100724;-87
2021/07/08 01:39:26;;;;;;;7.75;6.22;;;16.00;99.90;;;16.53;100.00;101038.97;3537195;39;100317;-87
2021/07/08 01:42:38;;;;;;;6.63;5.93;;;16.00;99.90;;;16.65;100.00;101044.00;3540768;39;100946;-86
2021/07/08 01:45:50;;;;;;;6.63;5.53;;;16.50;99.90;;;16.56;100.00;101048.59;3543867;39;101171;-82
2021/07/08 01:49:02;;;;;;;8.67;6.00;;;16.00;99.90;;;16.65;100.00;101044.00;3536440;39;100161;-86
2021/07/08 01:52:14;;;;;;;10.30;5.63;;;15.50;99.90;;;16.54;100.00;101042.53;3547170;39;100492;-82
2021/07/08 01:55:28;;;;;;;6.78;5.68;;;15.90;99.90;;;16.60;100.00;101027.44;3535736;39;101181;-86
2021/07/08 01:58:40;;;;;;;7.15;5.88;;;15.90;99.90;;;16.46;100.00;101037.16;3616328;22;103102;-83
2021/07/08 02:01:52;;;;;;;7.47;6.00;;;15.80;99.90;;;16.43;100.00;101040.22;3588437;22;101171;-85
2021/07/08 02:05:04;;;;;;;7.63;5.88;;;15.80;99.90;;;16.39;100.00;101041.59;3548314;39;100660;-81
2021/07/08 02:08:16;;;;;;;7.63;6.00;;;15.80;99.90;;;16.30;100.00;101046.19;3537263;39;101090;-82
2021/07/08 02:11:30;;;;;;;7.03;6.07;;;15.80;99.90;;;16.23;100.00;101041.66;3543642;39;101145;-81
2021/07/08 02:14:42;;;;;;;11.70;6.38;;;15.80;99.90;;;16.22;100.00;101045.38;3524402;39;102601;-82
2021/07/08 02:17:54;;;;;;;7.20;6.10;;;15.70;99.90;;;16.06;100.00;101041.75;3518965;39;101071;-86
2021/07/08 02:21:06;;;;;;;9.07;6.80;;;15.70;99.90;;;15.95;100.00;101049.41;3532240;39;101219;-87
2021/07/08 02:24:17;;;;;;;8.20;5.68;;;15.60;99.90;;;15.85;100.00;101052.28;3518496;39;103230;-86
2021/07/08 02:27:31;;;;;;;6.47;5.38;;;15.50;99.90;;;15.91;100.00;101056.16;3544792;39;99988;-82
2021/07/08 02:30:44;;;;;;;6.78;5.38;;;15.50;99.90;;;16.04;100.00;101061.84;3528822;39;100493;-82
2021/07/08 02:33:56;;;;;;;8.52;5.93;;;15.40;99.90;;;15.91;100.00;101053.47;3536413;39;103052;-82
2021/07/08 02:37:08;;;;;;;7.07;4.90;;;15.30;99.90;;;15.89;100.00;101048.22;3529018;39;102909;-83
2021/07/08 02:40:21;;;;;;;10.10;5.68;;;15.30;99.90;;;15.89;100.00;101050.94;3542896;39;101478;-83
2021/07/08 02:43:34;;;;;;;5.93;5.25;;;15.40;99.90;;;15.85;100.00;101043.34;3536439;39;100067;-82
2021/07/08 02:46:46;;;;;;;9.10;5.53;;;16.50;99.90;;;15.86;100.00;101047.72;3545955;39;101290;-86
2021/07/08 02:49:22;;;;;;;6.53;5.72;;;15.20;99.90;;;15.83;100.00;101040.81;3622004;22;101294;-82
2021/07/08 02:51:49;;;;;;;7.20;4.93;;;15.20;99.90;;;15.82;100.00;101050.75;3562513;39;101622;-86
2021/07/08 02:54:16;;;;;;;8.90;6.10;;;15.80;99.90;;;15.80;100.00;101046.59;3550128;39;101296;-83
2021/07/08 02:56:43;;;;;;;6.27;5.17;;;15.20;99.90;;;15.86;100.00;101045.03;3542623;39;101075;-86
2021/07/08 02:59:12;;;;;;;6.25;5.43;;;15.20;99.90;;;15.81;100.00;101048.28;3547424;39;101068;-85
2021/07/08 03:01:39;;;;;;;8.70;6.27;;;15.20;99.90;;;15.89;100.00;101044.69;3548678;39;100864;-85
2021/07/08 03:04:06;;;;;;;7.97;6.38;;;15.20;99.90;;;15.86;100.00;101053.13;3542308;39;100168;-86
2021/07/08 03:06:33;;;;;;;11.65;5.57;;;15.10;99.90;;;15.78;100.00;101060.25;3539735;39;101202;-82
2021/07/08 03:09:01;;;;;;;8.50;6.07;;;15.10;99.90;;;15.82;100.00;101054.50;3542549;39;103043;-85
2021/07/08 03:11:27;;;;;;;7.07;6.17;;;15.20;99.90;;;15.82;100.00;101062.59;3540109;39;100421;-86
2021/07/08 03:13:54;;;;;;;6.40;5.40;;;16.20;99.90;;;15.85;100.00;101062.22;3545995;39;100420;-82
2021/07/08 03:16:23;;;;;;;8.00;5.90;;;15.20;99.90;;;15.93;100.00;101067.63;3540574;39;101251;-86
2021/07/08 03:18:50;;;;;;;10.00;5.70;;;15.10;99.90;;;15.89;100.00;101063.59;3537870;39;101467;-85
2021/07/08 03:21:17;;;;;;;9.07;6.50;;;15.20;99.90;;;15.90;100.00;101065.28;3543964;39;102209;-86
2021/07/08 03:23:44;;;;;;;8.20;6.10;;;15.20;99.90;;;15.77;100.00;101060.41;3545923;39;100098;-82
2021/07/08 03:26:11;;;;;;;8.73;6.60;;;15.30;99.90;;;15.76;100.00;101067.66;3536535;39;103475;-82
2021/07/08 03:28:38;;;;;;;7.03;5.00;;;15.20;99.90;;;15.85;100.00;101057.69;3542421;39;100978;-84
2021/07/08 03:31:05;;;;;;;6.90;5.22;;;15.80;99.90;;;15.77;100.00;101060.41;3542177;39;100723;-81
2021/07/08 03:33:34;;;;;;;6.85;5.82;;;15.30;99.90;;;15.90;100.00;101068.81;3550487;39;100769;-86
2021/07/08 03:36:01;;;;;;;6.60;5.10;;;15.30;99.90;;;15.92;100.00;101061.38;3532215;39;101062;-82
2021/07/08 03:38:28;;;;;;;6.13;5.00;;;15.20;99.90;;;15.89;100.00;101050.09;3531223;39;101656;-82
2021/07/08 03:40:55;;;;;;;12.07;5.73;;;15.20;99.90;;;16.07;100.00;101056.09;3538424;39;100666;-85
2021/07/08 03:43:22;;;;;;;9.43;4.87;;;15.20;99.90;;;16.23;100.00;101060.56;3543761;39;100011;-81
2021/07/08 03:45:49;;;;;;;6.10;4.33;;;15.20;99.90;;;16.30;100.00;101057.00;3535242;39;101057;-81
2021/07/08 03:48:17;;;;;;;7.50;5.47;;;15.20;99.90;;;16.44;100.00;101058.94;3540569;39;101764;-82
2021/07/08 03:50:46;;;;;;;11.40;4.97;;;15.30;99.90;;;16.32;100.00;101049.53;3537090;39;100505;-81
2021/07/08 03:53:13;;;;;;;6.28;4.75;;;15.30;99.90;;;16.48;100.00;101054.88;3540610;39;100079;-85
2021/07/08 03:55:40;;;;;;;6.80;5.63;;;16.20;99.90;;;16.70;100.00;101055.09;3539350;39;101326;-86
2021/07/08 03:58:07;;;;;;;5.40;4.88;;;15.30;99.90;;;16.71;100.00;101036.00;3539497;39;101195;-81
2021/07/08 04:00:37;;;;;;;5.78;4.88;;;15.70;99.90;;;16.69;100.00;101038.03;3525953;39;102380;-82
2021/07/08 04:03:08;;;;;;;8.43;5.57;;;15.40;99.90;;;16.73;100.00;101028.56;3536936;39;100389;-86
2021/07/08 04:05:36;;;;;;;5.23;4.70;;;15.50;99.90;;;16.98;100.00;101026.50;3538936;39;103271;-86
2021/07/08 04:08:07;;;;;;;9.82;4.70;;;15.50;99.90;;;17.17;100.00;101017.91;3537747;39;100437;-84
2021/07/08 04:10:37;;;;;;;5.05;4.25;;;15.60;99.90;;;17.19;100.00;101005.00;3542800;39;100035;-85
2021/07/08 04:13:04;;;;;;;5.95;4.63;;;15.60;99.90;;;17.11;100.00;101006.97;3540115;39;99905;-80
2021/07/08 04:15:32;;;;;;;8.60;4.93;;;15.70;99.90;;;16.89;100.00;101008.69;3542529;39;102594;-84
2021/07/08 04:18:00;;;;;;;5.28;4.05;;;16.20;99.90;;;16.87;100.00;101010.72;3542578;39;103364;-88
2021/07/08 04:20:28;;;;;;;8.18;5.10;;;15.10;99.90;;;16.88;100.00;101021.34;3586179;22;105267;-81
2021/07/08 04:23:34;;;;;;;4.75;3.85;;;15.80;99.90;;;16.75;100.00;101018.41;3590269;22;104386;-82
2021/07/08 04:26:45;;;;;;;5.65;4.28;;;15.90;99.90;;;16.78;100.00;101028.88;3539158;39;101111;-80
2021/07/08 04:29:57;;;;;;;6.22;4.68;;;15.60;99.90;;;16.79;100.00;101025.16;3530812;39;103447;-81
2021/07/08 04:33:10;;;;;;;6.30;4.88;;;16.00;99.90;;;16.76;100.00;101020.09;3554309;39;102336;-86
2021/07/08 04:36:21;;;;;;;4.78;4.13;;;16.00;99.90;;;16.41;100.00;101026.06;3532743;39;100531;-81
2021/07/08 04:39:35;;;;;;;4.80;4.05;;;16.10;99.90;;;16.72;100.00;101026.88;3525390;39;103728;-85
2021/07/08 04:42:47;;;;;;;4.82;4.07;;;16.20;99.90;;;16.74;100.00;101030.25;3538226;39;101697;-81
2021/07/08 04:46:00;;;;;;;5.05;4.40;;;16.30;99.90;;;16.97;100.00;101027.53;3519798;39;101290;-84
2021/07/08 04:49:13;;;;;;;4.28;3.60;;;16.40;99.90;;;17.15;100.00;101017.25;3538578;39;99909;-81
2021/07/08 04:51:48;;;;;;;5.18;4.03;;;16.50;99.90;;;17.62;100.00;101007.97;3568704;22;103390;-82
2021/07/08 04:54:17;;;;;;;5.15;4.25;;;16.60;99.90;;;17.70;100.00;101001.63;3514658;39;102748;-81
2021/07/08 04:56:44;;;;;;;8.02;3.97;;;16.80;99.90;;;17.62;100.00;100999.84;3522562;39;102287;-83
2021/07/08 04:59:11;;;;;;;4.95;3.42;;;17.40;99.90;;;17.53;100.00;101001.81;3534754;39;100220;-80
2021/07/08 05:01:38;;;;;;;4.03;3.63;;;17.10;99.90;;;17.91;100.00;100999.03;3533286;39;100149;-85
2021/07/08 05:04:05;;;;;;;3.42;3.13;;;17.20;99.90;;;18.12;100.00;100992.81;3581700;22;104424;-81
2021/07/08 05:06:33;;;;;;;5.07;3.78;;;17.30;99.90;;;18.49;100.00;100979.06;3543284;39;100432;-82
2021/07/08 05:09:00;;;;;;;4.32;3.20;;;18.70;99.90;;;18.91;100.00;100963.84;3541757;39;101108;-86
2021/07/08 05:11:28;;;;;;;3.28;2.75;;;17.80;99.90;;;18.96;100.00;100951.38;3628003;22;102036;-86
2021/07/08 05:13:55;;;;;;;1.90;1.75;;;18.00;99.90;;;19.03;100.00;100943.28;3557733;22;1180997;-85
2021/07/08 05:16:22;;;;;;;3.38;3.08;;;18.30;99.90;;;18.78;100.00;100932.03;3591314;22;105535;-86
2021/07/08 05:18:49;;;;;;;2.53;2.33;;;18.50;99.90;;;18.34;100.00;100925.97;3663263;22;104944;-86
2021/07/08 05:21:16;;;;;;;3.92;2.53;;;18.60;99.90;;;18.40;100.00;100922.50;3551727;39;100831;-85
2021/07/08 05:23:44;;;;;;;4.13;2.55;;;18.70;99.90;;;18.28;100.00;100923.00;3544763;39;101166;-82
2021/07/08 05:26:11;;;;;;;4.47;2.15;;;18.80;99.90;;;18.25;100.00;100915.25;3618626;22;103385;-82
2021/07/08 05:28:39;;;;;;;2.42;2.05;;;18.80;99.90;;;18.60;100.00;100910.81;3603959;22;102773;-84
2021/07/08 05:31:06;;;;;;;2.95;2.55;;;18.80;99.90;;;18.62;100.00;100914.19;3539533;39;101690;-82
2021/07/08 05:33:33;;;;;;;2.83;2.08;;;18.70;99.90;;;18.75;100.00;100915.31;3547824;39;101257;-81
2021/07/08 05:36:00;;;;;;;1.88;1.77;;;18.90;99.90;;;18.88;100.00;100918.97;3608203;22;104615;-82
2021/07/08 05:38:27;;;;;;;4.35;2.53;;;19.10;99.90;;;19.16;100.00;100918.13;3532434;39;100233;-80
2021/07/08 05:40:54;;;;;;;1.67;1.38;;;20.20;99.90;;;19.17;100.00;100903.50;3532410;39;102567;-82
2021/07/08 05:43:21;;;;;;;2.10;1.67;;;20.10;99.90;;;19.00;100.00;100900.28;3526904;39;103193;-84
2021/07/08 05:45:50;;;;;;;2.67;1.80;;;20.40;99.90;;;19.00;100.00;100890.28;3539335;39;100258;-85
2021/07/08 05:48:18;;;;;;;1.50;1.40;;;20.60;99.90;;;19.04;100.00;100895.31;3526525;39;100000;-82
2021/07/08 05:50:46;;;;;;;2.70;1.67;;;19.50;99.90;;;19.01;100.00;100905.53;3533807;39;101036;-81
2021/07/08 05:53:13;;;;;;;3.05;1.65;;;19.60;99.90;;;19.12;100.00;100920.41;3533254;39;101015;-82
2021/07/08 05:55:40;;;;;;;1.73;1.40;;;19.60;99.90;;;18.90;100.00;100921.50;3609042;22;102718;-83
2021/07/08 05:58:07;;;;;;;1.10;0.95;;;19.70;99.90;;;19.07;100.00;100913.88;3528758;39;100217;-82
2021/07/08 06:00:34;;;;;;;2.45;1.38;;;19.60;99.90;;;19.27;100.00;100914.88;3517828;39;101299;-82
2021/07/08 06:03:02;;;;;;;1.15;1.05;;;19.80;99.90;;;19.60;100.00;100918.63;3533720;39;101674;-83
2021/07/08 06:05:30;;;;;;;1.60;1.30;;;18.80;99.90;;;19.49;100.00;100916.47;3518987;39;102944;-83
2021/07/08 06:07:56;;;;;;;0.98;0.82;;;19.90;99.90;;;19.76;100.00;100922.88;3524049;39;100013;-82
2021/07/08 06:10:24;;;;;;;1.48;1.25;;;20.00;99.90;;;19.69;100.00;100908.41;3524380;39;100916;-81
2021/07/08 06:12:51;;;;;;;1.15;0.98;;;20.10;99.90;;;19.58;100.00;100909.00;3529228;39;101173;-81
2021/07/08 06:15:20;;;;;;;1.63;1.23;;;19.70;99.90;;;19.43;100.00;100900.13;3534090;39;100209;-85
2021/07/08 06:17:47;;;;;;;1.55;1.27;;;20.20;99.90;;;19.28;100.00;100903.81;3527873;39;100123;-85
2021/07/08 06:20:17;;;;;;;2.22;1.20;;;19.90;99.90;;;19.45;100.00;100900.75;3530800;39;102696;-84
2021/07/08 06:22:44;;;;;;;2.65;1.60;;;20.20;99.90;;;19.53;100.00;100906.06;3533335;39;101078;-81
2021/07/08 06:25:13;;;;;;;1.05;0.95;;;21.30;99.90;;;19.52;100.00;100905.22;3533612;39;102565;-82
2021/07/08 06:27:40;;;;;;;2.08;1.42;;;20.20;99.90;;;19.52;100.00;100910.66;3531250;39;100185;-85
2021/07/08 06:30:09;;;;;;;1.30;1.17;;;20.20;99.90;;;19.56;100.00;100905.63;3530467;39;101226;-84
2021/07/08 06:32:37;;;;;;;0.80;0.80;;;20.20;99.90;;;19.56;100.00;100919.22;3530712;39;101013;-82
2021/07/08 06:35:07;;;;;;;1.10;0.88;;;20.20;99.90;;;19.41;100.00;100919.31;3525984;39;100506;-85
2021/07/08 06:37:36;;;;;;;0.98;0.98;;;20.20;99.90;;;19.43;100.00;100919.94;3513399;39;100180;-81
2021/07/08 06:40:05;;;;;;;1.30;1.20;;;20.30;99.90;;;19.30;100.00;100903.59;3536502;39;101030;-82
2021/07/08 06:42:32;;;;;;;2.05;1.33;;;20.10;99.90;;;19.24;100.00;100907.13;3527355;39;101510;-81
2021/07/08 06:45:06;;;;;;;1.20;1.10;;;20.70;99.90;;;19.20;100.00;100906.66;3530853;39;100378;-85
2021/07/08 06:47:38;;;;;;;1.13;0.90;;;20.10;99.90;;;19.26;100.00;100908.59;3526189;39;100093;-80
2021/07/08 06:50:06;;;;;;;0.88;0.82;;;20.00;99.90;;;19.37;100.00;100908.03;3530884;39;101213;-82
2021/07/08 06:52:35;;;;;;;5.65;1.42;;;19.90;99.90;;;19.43;100.00;100902.81;3526925;39;101669;-81
2021/07/08 06:55:02;;;;;;;1.88;1.30;;;19.90;99.90;;;19.45;100.00;100898.88;3529995;39;100297;-81
2021/07/08 06:57:29;;;;;;;1.55;1.38;;;19.90;99.90;;;19.48;100.00;100887.63;3535699;39;100003;-82
2021/07/08 06:59:56;;;;;;;1.30;1.20;;;20.70;99.90;;;19.47;100.00;100890.53;3542217;39;102593;-81
2021/07/08 07:02:23;;;;;;;1.80;1.40;;;19.90;99.90;;;19.50;100.00;100888.31;3517424;39;103352;-83
2021/07/08 07:04:50;;;;;;;2.55;1.15;;;20.40;99.90;;;19.49;100.00;100897.47;3535206;39;100848;-85
2021/07/08 07:07:17;;;;;;;3.53;1.23;;;21.00;99.90;;;19.38;100.00;100889.88;3526881;39;100345;-83
2021/07/08 07:09:45;;;;;;;1.83;1.55;;;19.90;99.90;;;19.36;100.00;100890.06;3528055;39;101819;-85
2021/07/08 07:12:13;;;;;;;5.35;1.67;;;20.60;99.90;;;19.33;100.00;100882.31;3579847;22;103939;-85
2021/07/08 07:14:40;;;;;;;1.50;1.17;;;19.90;99.90;;;19.34;100.00;100889.44;3601254;22;104490;-85
2021/07/08 07:17:07;;;;;;;1.40;1.30;;;20.90;99.90;;;19.30;100.00;100890.03;3549801;39;99827;-82
2021/07/08 07:19:34;;;;;;;1.48;1.30;;;19.70;99.90;;;19.29;100.00;100894.59;3546799;39;100694;-82
2021/07/08 07:22:01;;;;;;;1.70;1.60;;;19.70;99.90;;;19.36;100.00;100900.94;3537672;39;100906;-82
2021/07/08 07:24:28;;;;;;;1.92;1.70;;;20.10;99.90;;;19.36;100.00;100908.22;3548265;39;100590;-86
2021/07/08 07:26:57;;;;;;;1.95;1.50;;;19.70;99.90;;;19.38;100.00;100914.31;3544887;39;100098;-82
2021/07/08 07:29:24;;;;;;;1.40;1.30;;;19.60;99.90;;;19.43;100.00;100913.69;3533700;39;101230;-82
2021/07/08 07:31:51;;;;;;;1.30;1.20;;;19.60;99.90;;;19.52;100.00;100905.22;3544910;39;100570;-82
2021/07/08 07:34:18;;;;;;;4.40;1.20;;;19.70;99.90;;;19.56;100.00;100897.50;3535212;39;100165;-82
2021/07/08 07:36:45;;;;;;;3.92;1.85;;;19.90;99.90;;;19.63;100.00;100899.22;3530693;39;99973;-85
2021/07/08 07:39:12;;;;;;;1.27;1.02;;;19.80;99.90;;;19.60;100.00;100898.78;3543005;39;101064;-82
2021/07/08 07:41:39;;;;;;;0.73;0.70;;;19.70;99.90;;;19.70;100.00;100901.94;3531871;39;101239;-85
2021/07/08 07:44:08;;;;;;;1.25;1.15;;;19.70;99.90;;;19.66;100.00;100901.50;3540445;39;100522;-83
2021/07/08 07:46:35;;;;;;;2.22;1.23;;;19.90;99.90;;;19.76;100.00;100898.44;3538977;39;99912;-86
2021/07/08 07:49:02;;;;;;;2.45;1.17;;;19.90;99.90;;;19.75;100.00;100894.03;3541688;39;103562;-82
2021/07/08 07:51:29;;;;;;;1.13;1.00;;;20.00;99.90;;;19.91;100.00;100879.25;3537934;39;101077;-82
2021/07/08 07:53:56;;;;;;;2.03;1.30;;;20.00;99.90;;;20.12;100.00;100872.84;3536696;39;100228;-82
2021/07/08 07:56:23;;;;;;;1.75;1.65;;;20.20;99.90;;;20.17;100.00;100871.16;3536742;39;100154;-84
2021/07/08 07:58:50;;;;;;;1.70;1.17;;;20.20;99.90;;;20.33;100.00;100869.94;3543870;39;100492;-86
2021/07/08 08:01:18;;;;;;;3.38;1.20;;;20.30;99.90;;;20.31;100.00;100853.81;3551736;39;100380;-82
2021/07/08 08:03:45;;;;;;;2.17;1.05;;;21.20;99.90;;;20.19;100.00;100850.06;3539911;39;100100;-82
2021/07/08 08:09:05;;;;;;;2.10;1.42;;;20.60;99.90;;;20.32;100.00;100870.97;3523629;39;101444;-81
2021/07/08 08:11:32;;;;;;;2.67;1.38;;;20.80;99.90;;;20.37;100.00;100879.38;3542720;39;101052;-84
2021/07/08 08:13:59;;;;;;;1.50;1.25;;;21.00;99.90;;;20.41;100.00;100880.63;3530539;39;101977;-81
2021/07/08 08:16:29;;;;;;;1.38;1.27;;;20.80;99.90;;;20.29;100.00;100874.94;3541794;39;99976;-81
2021/07/08 08:18:56;;;;;;;3.08;0.90;;;21.10;99.90;;;20.38;100.00;100884.63;3540561;39;100765;-81
2021/07/08 08:21:23;;;;;;;1.55;1.30;;;20.90;99.90;;;20.56;100.00;100886.69;3531739;39;103035;-84
2021/07/08 08:23:50;;;;;;;4.82;1.20;;;22.00;99.90;;;20.46;100.00;100878.13;3567813;22;100571;-86
2021/07/08 08:26:17;;;;;;;1.45;0.95;;;21.00;99.90;;;20.66;100.00;100891.72;3528013;39;100702;-81
2021/07/08 08:28:44;;;;;;;1.17;1.08;;;21.00;99.90;;;20.85;100.00;100890.88;3537936;39;100153;-85
2021/07/08 08:31:12;;;;;;;1.00;0.90;;;22.10;99.90;;;20.73;100.00;100896.13;3556423;39;100753;-85
2021/07/08 08:33:40;;;;;;;2.78;1.00;;;21.20;99.90;;;20.66;100.00;100886.28;3539186;39;102661;-82
2021/07/08 08:36:07;;;;;;;1.33;0.77;;;21.30;99.90;;;20.61;100.00;100886.91;3558913;39;100219;-87
2021/07/08 08:38:34;;;;;;;3.20;0.85;;;21.30;99.90;;;20.76;100.00;100886.72;3532471;39;102979;-85
2021/07/08 08:41:02;;;;;;;0.98;0.90;;;22.30;99.90;;;20.89;100.00;100881.25;3534747;39;101346;-85
2021/07/08 08:43:29;;;;;;;0.98;0.98;;;21.30;99.90;;;20.90;100.00;100877.47;3537134;39;102746;-82
2021/07/08 08:45:56;;;;;;;1.42;0.80;;;21.40;99.90;;;20.65;100.00;100865.56;3546611;39;99948;-86
2021/07/08 08:48:23;;;;;;;0.88;0.80;;;21.60;99.90;;;21.09;100.00;100871.19;3595525;22;102838;-83
2021/07/08 08:50:52;;;;;;;0.82;0.60;;;21.40;99.90;;;20.77;100.00;100869.34;3565545;22;102249;-84
2021/07/08 08:53:22;;;;;;;7.45;0.70;;;21.50;99.90;;;20.79;100.00;100868.06;3571973;22;100461;-85
2021/07/08 08:55:50;;;;;;;1.40;0.70;;;21.50;99.90;;;20.85;100.00;100868.28;3579491;22;100420;-86
2021/07/08 08:58:20;;;;;;;0.77;0.75;;;21.60;99.90;;;20.82;100.00;100857.81;3546727;39;100794;-82
2021/07/08 09:00:50;;;;;;;1.33;1.10;;;21.60;99.90;;;20.98;100.00;100847.34;3528392;39;101014;-86
2021/07/08 09:03:20;;;;;;;1.65;0.80;;;22.30;99.90;;;20.82;100.00;100845.06;3525106;39;101050;-82
2021/07/08 09:05:58;;;;;;;2.75;1.00;;;21.70;99.90;;;20.79;100.00;100845.47;3530924;39;100042;-82
2021/07/08 09:08:26;;;;;;;1.00;0.80;;;21.70;99.90;;;20.91;100.00;100851.09;3561957;22;104313;-82
2021/07/08 09:11:13;;;;;;;1.13;0.90;;;21.70;99.90;;;21.02;100.00;100853.16;3529638;39;103019;-82
2021/07/08 09:13:59;;;;;;;4.07;1.05;;;21.70;99.90;;;21.26;100.00;100852.53;3533300;39;101580;-86
2021/07/08 09:16:30;;;;;;;0.50;0.50;;;22.40;99.90;;;21.49;100.00;100852.03;3525528;39;100445;-83
2021/07/08 09:19:11;;;;;;;0.60;0.60;;;21.90;99.90;;;21.67;100.00;100851.31;3529053;39;101073;-82
2021/07/08 09:21:42;;;;;;;1.58;1.30;;;22.00;99.90;;;21.48;100.00;100853.09;3531897;39;102992;-82
2021/07/08 09:24:17;;;;;;;3.10;1.15;;;22.10;99.90;;;21.17;100.00;100840.16;3534398;39;100521;-87
2021/07/08 09:26:55;;;;;;;2.75;0.60;;;23.30;99.90;;;21.14;100.00;100846.84;3529799;39;100169;-85
2021/07/08 09:29:25;;;;;;;0.98;0.82;;;22.20;99.90;;;21.62;100.00;100853.88;3532655;39;100802;-83
2021/07/08 09:31:54;;;;;;;0.82;0.70;;;22.20;99.90;;;21.68;100.00;100840.19;3519661;39;103359;-83
2021/07/08 09:34:23;;;;;;;0.63;0.63;;;23.40;99.90;;;21.72;100.00;100827.81;3530760;39;103008;-81
2021/07/08 09:37:05;;;;;;;1.45;0.82;;;22.30;99.90;;;21.54;100.00;100826.84;3568145;22;100711;-85
2021/07/08 09:39:35;;;;;;;0.60;0.60;;;22.30;99.90;;;21.70;100.00;100829.09;3514029;39;102763;-85
2021/07/08 09:42:04;;;;;;;5.57;1.08;;;22.50;99.90;;;22.10;100.00;100830.56;3515672;39;102930;-82
2021/07/08 09:44:32;;;;;;;2.03;1.25;;;22.60;99.90;;;21.92;100.00;100841.31;3524662;39;100534;-82
2021/07/08 09:47:00;;;;;;;0.55;0.47;;;22.70;99.90;;;22.43;100.00;100840.38;3526818;39;100677;-82
2021/07/08 09:49:29;;;;;;;2.20;1.30;;;23.80;99.90;;;21.87;100.00;100843.88;3525364;39;102764;-81
2021/07/08 09:51:57;;;;;;;1.13;1.05;;;22.90;99.90;;;22.32;100.00;100830.19;3526987;39;101377;-82
2021/07/08 09:55:03;;;;;;;1.25;1.05;;;24.10;99.90;;;22.34;100.00;100825.34;3511587;39;100437;-87
2021/07/08 09:57:45;;;;;;;1.20;1.10;;;24.10;99.90;;;22.49;100.00;100823.13;3517876;39;100089;-85
2021/07/08 10:00:35;;;;;;;1.10;1.00;;;23.50;99.90;;;22.72;100.00;100817.03;3511335;39;101092;-83
2021/07/08 10:03:04;;;;;;;0.65;0.65;;;23.60;99.90;;;22.50;100.00;100824.78;3510858;39;102285;-85
2021/07/08 10:05:36;;;;;;;1.27;1.00;;;23.80;99.90;;;22.22;100.00;100825.22;3516315;39;101114;-86
2021/07/08 10:08:07;;;;;;;1.30;0.88;;;23.80;99.90;;;22.31;100.00;100829.34;3521818;39;100320;-84
2021/07/08 10:10:37;;;;;;;1.35;0.80;;;23.90;99.90;;;22.32;100.00;100835.63;3524044;39;101043;-82
2021/07/08 10:13:07;;;;;;;1.60;0.95;;;24.00;99.90;;;22.41;100.00;100823.38;3532451;39;103280;-83
2021/07/08 10:15:37;;;;;;;2.55;1.23;;;24.00;99.90;;;22.52;100.00;100815.31;3526037;39;100902;-84
2021/07/08 10:18:07;;;;;;;2.70;0.80;;;25.00;99.90;;;22.44;100.00;100820.22;3516970;39;100302;-80
2021/07/08 10:20:37;;;;;;;0.85;0.82;;;24.10;99.90;;;23.27;100.00;100817.91;3519462;39;101005;-84
2021/07/08 10:23:06;;;;;;;5.28;0.90;;;24.80;99.90;;;23.46;100.00;100807.81;3516410;39;102217;-82
2021/07/08 10:25:34;;;;;;;0.70;0.70;;;24.50;99.90;;;23.65;100.00;100809.47;3511374;39;100373;-84
2021/07/08 10:28:02;;;;;;;2.97;1.00;;;24.80;99.90;;;23.76;100.00;100803.22;3512443;39;100191;-83
2021/07/08 10:30:32;;;;;;;1.75;0.95;;;25.00;99.90;;;24.53;100.00;100803.28;3518968;39;101120;-84
2021/07/08 10:33:00;;;;;;;1.30;1.08;;;25.40;99.80;;;24.07;100.00;100785.72;3517749;39;101379;-84
2021/07/08 10:35:45;;;;;;;1.25;1.05;;;26.90;98.20;;;24.73;100.00;100775.59;3510899;39;100349;-81
2021/07/08 10:38:39;;;;;;;1.27;0.93;;;26.20;97.10;;;24.71;100.00;100789.50;3520448;39;100117;-81
2021/07/08 10:41:44;;;;;;;1.20;0.93;;;26.60;96.10;;;24.02;100.00;100788.31;3518685;39;102705;-81
2021/07/08 10:44:47;;;;;;;6.05;1.35;;;26.80;94.40;;;23.97;100.00;100802.72;3521743;39;101563;-85
2021/07/08 10:47:33;;;;;;;3.33;0.88;;;26.90;93.40;;;23.93;100.00;100806.97;3519471;39;100317;-85
2021/07/08 10:50:01;;;;;;;1.15;1.05;;;27.00;92.80;;;23.92;100.00;100799.84;3521033;39;100292;-84
2021/07/08 10:52:50;;;;;;;0.77;0.77;;;27.00;91.80;;;24.11;100.00;100805.25;3517754;39;100851;-84
2021/07/08 10:55:41;;;;;;;2.63;1.52;;;26.50;91.70;;;24.04;100.00;100793.56;3515475;39;100833;-85
2021/07/08 10:58:50;;;;;;;1.77;1.42;;;26.90;91.30;;;23.56;100.00;100802.66;3523060;39;100264;-82